createdAt,value
2018-06-23T01:40:28.260Z,0
2018-06-23T02:00:01.169Z,3
2018-06-23T02:11:33.326Z,7
2018-06-23T02:12:03.325Z,3
2018-06-23T02:12:33.500Z,7
2018-06-23T02:16:34.267Z,10
2018-06-23T02:19:34.759Z,13
2018-06-23T02:22:05.181Z,17
2018-06-23T02:23:35.527Z,20
2018-06-23T02:25:05.747Z,23
2018-06-23T02:26:05.878Z,27
2018-06-23T02:27:06.154Z,30
2018-06-23T02:28:06.410Z,33
2018-06-23T02:29:06.578Z,37
2018-06-23T02:30:06.699Z,40
2018-06-23T02:30:36.933Z,43
2018-06-23T02:31:37.061Z,47
2018-06-23T02:32:07.119Z,50
2018-06-23T02:32:37.317Z,53
2018-06-23T02:33:37.470Z,57
2018-06-23T02:34:07.479Z,60
2018-06-23T02:34:37.731Z,63
2018-06-23T02:35:07.693Z,67
2018-06-23T02:35:37.810Z,73
2018-06-23T02:36:07.904Z,77
2018-06-23T02:36:38.009Z,80
2018-06-23T02:37:08.068Z,87
2018-06-23T02:37:38.250Z,90
2018-06-23T02:38:08.261Z,97
2018-06-23T02:38:38.364Z,100
2018-06-23T02:39:08.513Z,107
2018-06-23T02:39:38.631Z,113
2018-06-23T02:40:08.598Z,117
2018-06-23T02:40:38.763Z,123
2018-06-23T02:41:08.894Z,130
2018-06-23T02:41:38.969Z,137
2018-06-23T02:42:09.068Z,143
2018-06-23T02:42:39.155Z,150
2018-06-23T02:43:09.209Z,157
2018-06-23T02:43:39.487Z,163
2018-06-23T02:44:09.473Z,173
2018-06-23T02:44:39.679Z,180
2018-06-23T02:45:39.801Z,193
2018-06-23T02:46:09.872Z,203
2018-06-23T02:46:39.982Z,210
2018-06-23T02:47:10.086Z,217
2018-06-23T02:47:40.216Z,227
2018-06-23T02:48:10.232Z,237
2018-06-23T02:48:40.349Z,247
2018-06-23T02:49:10.365Z,257
2018-06-23T02:49:40.539Z,270
2018-06-23T02:50:10.632Z,280
2018-06-23T02:50:40.694Z,293
2018-06-23T02:51:10.762Z,310
2018-06-23T02:51:40.883Z,323
2018-06-23T02:52:10.915Z,337
2018-06-23T02:52:41.121Z,353
2018-06-23T02:53:11.208Z,373
2018-06-23T02:53:41.315Z,390
2018-06-23T02:54:11.290Z,407
2018-06-23T02:54:41.575Z,420
2018-06-23T02:55:11.562Z,433
2018-06-23T02:55:41.633Z,453
2018-06-23T02:56:11.683Z,470
2018-06-23T02:56:41.872Z,490
2018-06-23T02:57:11.867Z,507
2018-06-23T02:57:42.027Z,527
2018-06-23T02:58:12.051Z,550
2018-06-23T02:58:42.218Z,577
2018-06-23T02:59:12.228Z,593
2018-06-23T02:59:42.511Z,617
2018-06-23T03:00:12.450Z,640
2018-06-23T03:00:42.604Z,663
2018-06-23T03:01:12.634Z,687
2018-06-23T03:01:42.807Z,710
2018-06-23T03:02:12.878Z,737
2018-06-23T03:02:43.093Z,763
2018-06-23T03:03:13.066Z,783
2018-06-23T03:03:43.211Z,810
2018-06-23T03:04:13.233Z,830
2018-06-23T03:04:43.361Z,853
2018-06-23T03:05:13.409Z,873
2018-06-23T03:05:43.518Z,897
2018-06-23T03:06:13.623Z,923
2018-06-23T03:06:43.693Z,960
2018-06-23T03:07:13.726Z,990
2018-06-23T03:07:43.962Z,1027
2018-06-23T03:08:13.913Z,1060
2018-06-23T03:08:44.098Z,1077
2018-06-23T03:09:14.082Z,1087
2018-06-23T03:12:14.650Z,1230
2018-06-23T03:12:44.959Z,1253
2018-06-23T03:13:14.837Z,1277
2018-06-23T03:13:45.131Z,1297
2018-06-23T03:14:15.126Z,1320
2018-06-23T03:14:45.985Z,1337
2018-06-23T03:15:15.406Z,1363
2018-06-23T03:15:45.752Z,1387
2018-06-23T03:16:15.769Z,1427
2018-06-23T03:16:46.168Z,1443
2018-06-23T03:17:15.947Z,1463
2018-06-23T03:17:46.577Z,1473
2018-06-23T03:18:16.169Z,1483
2018-06-23T03:18:46.256Z,1493
2018-06-23T03:19:46.444Z,1507
2018-06-23T03:20:16.560Z,1520
2018-06-23T03:20:46.701Z,1547
2018-06-23T03:21:16.794Z,1580
2018-06-23T03:21:46.897Z,1610
2018-06-23T03:22:16.814Z,1630
2018-06-23T03:22:47.389Z,1657
2018-06-23T03:23:17.313Z,1683
2018-06-23T03:23:47.434Z,1707
2018-06-23T03:24:17.354Z,1730
2018-06-23T03:24:47.963Z,1767
2018-06-23T03:25:17.717Z,1820
2018-06-23T03:25:47.909Z,1863
2018-06-23T03:26:17.848Z,1890
2018-06-23T03:26:48.085Z,1873
2018-06-23T03:27:18.060Z,1867
2018-06-23T03:27:48.276Z,1863
2018-06-23T03:28:18.211Z,1857
2018-06-23T03:28:48.432Z,1833
2018-06-23T03:29:18.463Z,1793
2018-06-23T03:29:48.604Z,1743
2018-06-23T03:30:18.666Z,1690
2018-06-23T03:30:48.792Z,1613
2018-06-23T03:31:18.847Z,1527
2018-06-23T03:31:49.027Z,1467
2018-06-23T03:32:19.042Z,1400
2018-06-23T03:32:49.477Z,1360
2018-06-23T03:33:19.207Z,1337
2018-06-23T03:33:49.373Z,1327
2018-06-23T03:34:19.367Z,1310
2018-06-23T03:34:49.531Z,1270
2018-06-23T03:35:19.578Z,1233
2018-06-23T03:35:49.714Z,1200
2018-06-23T03:36:19.743Z,1183
2018-06-23T03:36:49.880Z,1167
2018-06-23T03:37:19.915Z,1153
2018-06-23T03:37:50.261Z,1150
2018-06-23T03:38:20.137Z,1160
2018-06-23T03:38:50.269Z,1183
2018-06-23T03:39:20.327Z,1200
2018-06-23T03:39:50.418Z,1207
2018-06-23T03:40:20.502Z,1210
2018-06-23T03:40:50.602Z,1213
2018-06-23T03:41:20.654Z,1217
2018-06-23T03:41:50.829Z,1247
2018-06-23T03:42:20.835Z,1303
2018-06-23T03:42:51.212Z,1393
2018-06-23T03:43:21.146Z,1497
2018-06-23T03:43:51.164Z,1610
2018-06-23T03:44:21.212Z,1710
2018-06-23T03:44:51.433Z,1790
2018-06-23T03:45:21.386Z,1823
2018-06-23T03:45:51.594Z,1793
2018-06-23T03:46:21.621Z,1747
2018-06-23T03:46:51.767Z,1710
2018-06-23T03:47:21.871Z,1700
2018-06-23T03:48:21.990Z,1693
2018-06-23T03:48:52.081Z,1683
2018-06-23T03:49:22.194Z,1677
2018-06-23T03:49:52.283Z,1667
2018-06-23T03:50:22.362Z,1647
2018-06-23T03:50:52.496Z,1633
2018-06-23T03:51:22.494Z,1630
2018-06-23T03:51:52.740Z,1623
2018-06-23T03:52:22.780Z,1617
2018-06-23T03:52:52.881Z,1607
2018-06-23T03:53:22.972Z,1570
2018-06-23T03:53:53.040Z,1537
2018-06-23T03:54:23.103Z,1503
2018-06-23T03:54:53.228Z,1480
2018-06-23T03:55:23.263Z,1463
2018-06-23T03:55:53.457Z,1447
2018-06-23T03:56:23.470Z,1403
2018-06-23T03:56:53.645Z,1357
2018-06-23T03:57:23.914Z,1317
2018-06-23T03:57:53.781Z,1310
2018-06-23T03:58:23.804Z,1323
2018-06-23T03:58:53.960Z,1383
2018-06-23T03:59:23.972Z,1480
2018-06-23T03:59:54.285Z,1573
2018-06-23T04:00:24.178Z,1650
2018-06-23T04:00:54.304Z,1707
2018-06-23T04:01:24.421Z,1753
2018-06-23T04:01:54.527Z,1790
2018-06-23T04:02:24.577Z,1810
2018-06-23T04:02:54.733Z,1820
2018-06-23T04:03:24.826Z,1827
2018-06-23T04:03:54.915Z,1873
2018-06-23T04:04:24.947Z,1930
2018-06-23T04:04:55.121Z,1990
2018-06-23T04:05:25.165Z,2063
2018-06-23T04:05:55.273Z,2127
2018-06-23T04:06:25.344Z,2160
2018-06-23T04:06:55.490Z,2207
2018-06-23T04:07:25.538Z,2293
2018-06-23T04:07:55.591Z,2383
2018-06-23T04:08:25.736Z,2493
2018-06-23T04:08:55.863Z,2647
2018-06-23T04:09:25.867Z,2777
2018-06-23T04:09:55.987Z,2863
2018-06-23T04:10:26.012Z,2923
2018-06-23T04:10:56.184Z,2977
2018-06-23T04:11:26.323Z,3103
2018-06-23T04:11:56.394Z,3260
2018-06-23T04:12:26.407Z,3357
2018-06-23T04:12:56.672Z,3383
2018-06-23T04:13:26.608Z,3293
2018-06-23T04:13:56.806Z,3173
2018-06-23T04:14:26.786Z,3090
2018-06-23T04:14:56.936Z,3050
2018-06-23T04:15:26.964Z,3037
2018-06-23T04:15:57.130Z,3057
2018-06-23T04:16:27.152Z,3087
2018-06-23T04:16:57.320Z,3110
2018-06-23T04:17:27.348Z,3083
2018-06-23T04:17:57.523Z,3110
2018-06-23T04:18:27.541Z,3097
2018-06-23T04:18:57.735Z,2997
2018-06-23T04:19:27.829Z,2870
2018-06-23T04:19:57.894Z,2907
2018-06-23T04:20:27.918Z,3163
2018-06-23T04:20:58.079Z,3413
2018-06-23T04:21:28.099Z,3630
2018-06-23T04:21:58.301Z,3740
2018-06-23T04:22:28.393Z,3763
2018-06-23T04:22:58.449Z,3633
2018-06-23T04:23:28.578Z,3413
2018-06-23T04:23:58.730Z,3373
2018-06-23T04:24:28.635Z,3300
2018-06-23T04:24:58.838Z,3207
2018-06-23T04:25:28.803Z,3077
2018-06-23T04:25:58.973Z,3040
2018-06-23T04:26:29.005Z,3030
2018-06-23T04:26:59.292Z,2890
2018-06-23T04:27:29.238Z,2970
2018-06-23T04:27:59.381Z,3130
2018-06-23T04:28:29.467Z,3137
2018-06-23T04:28:59.572Z,3510
2018-06-23T04:29:29.618Z,3773
2018-06-23T04:29:59.820Z,3970
2018-06-23T04:30:29.763Z,4053
2018-06-23T04:30:59.963Z,4000
2018-06-23T04:31:30.072Z,4273
2018-06-23T04:32:00.143Z,4507
2018-06-23T04:32:30.191Z,4497
2018-06-23T04:33:01.085Z,4313
2018-06-23T04:33:30.405Z,3993
2018-06-23T04:34:01.617Z,3757
2018-06-23T04:34:30.591Z,4030
2018-06-23T04:35:01.621Z,4470
2018-06-23T04:35:30.800Z,4547
2018-06-23T04:36:01.062Z,4670
2018-06-23T04:36:30.951Z,4817
2018-06-23T04:37:01.426Z,4843
2018-06-23T04:37:31.238Z,4620
2018-06-23T04:38:01.476Z,4453
2018-06-23T04:38:31.291Z,4537
2018-06-23T04:39:01.667Z,4470
2018-06-23T04:39:31.463Z,4363
2018-06-23T04:40:01.635Z,4277
2018-06-23T04:40:31.762Z,4227
2018-06-23T04:41:01.866Z,3903
2018-06-23T04:41:31.915Z,4243
2018-06-23T04:42:02.186Z,4163
2018-06-23T04:42:32.083Z,4257
2018-06-23T04:43:02.337Z,4573
2018-06-23T04:43:32.300Z,5047
2018-06-23T04:44:02.783Z,5113
2018-06-23T04:44:32.635Z,5107
2018-06-23T04:45:02.660Z,4987
2018-06-23T04:45:32.694Z,4750
2018-06-23T04:46:02.831Z,4703
2018-06-23T04:46:32.877Z,4907
2018-06-23T04:47:03.013Z,5017
2018-06-23T04:47:33.051Z,4703
2018-06-23T04:48:03.244Z,3970
2018-06-23T04:48:33.316Z,4273
2018-06-23T04:49:03.473Z,5353
2018-06-23T04:49:33.546Z,4837
2018-06-23T04:50:03.599Z,5257
2018-06-23T04:50:33.741Z,5980
2018-06-23T04:51:03.877Z,7250
2018-06-23T04:51:33.852Z,7550
2018-06-23T04:52:03.983Z,6907
2018-06-23T04:52:34.177Z,5627
2018-06-23T04:53:04.210Z,4717
2018-06-23T04:53:34.218Z,5533
2018-06-23T04:54:04.525Z,6573
2018-06-23T04:54:34.658Z,7150
2018-06-23T04:55:04.590Z,6783
2018-06-23T04:55:34.654Z,6190
2018-06-23T04:56:04.849Z,6387
2018-06-23T04:56:34.826Z,6843
2018-06-23T04:57:04.974Z,6357
2018-06-23T04:57:35.079Z,6383
2018-06-23T04:58:05.158Z,6393
2018-06-23T04:58:35.188Z,6680
2018-06-23T04:59:05.408Z,7133
2018-06-23T04:59:35.469Z,6323
2018-06-23T05:00:05.590Z,5897
2018-06-23T05:00:35.706Z,6430
2018-06-23T05:01:05.807Z,7197
2018-06-23T05:01:35.774Z,6770
2018-06-23T05:02:05.957Z,5700
2018-06-23T05:02:35.964Z,5630
2018-06-23T05:03:06.126Z,6263
2018-06-23T05:03:36.177Z,6843
2018-06-23T05:04:06.465Z,6637
2018-06-23T05:04:36.343Z,5927
2018-06-23T05:05:06.571Z,5913
2018-06-23T05:05:36.517Z,5243
2018-06-23T05:06:06.757Z,4923
2018-06-23T05:06:36.734Z,5393
2018-06-23T05:07:06.889Z,5433
2018-06-23T05:07:36.939Z,5460
2018-06-23T05:08:07.141Z,5603
2018-06-23T05:08:37.169Z,5523
2018-06-23T05:09:07.274Z,5867
2018-06-23T05:09:37.275Z,7050
2018-06-23T05:10:07.517Z,6470
2018-06-23T05:10:37.508Z,5700
2018-06-23T05:11:07.654Z,5250
2018-06-23T05:11:37.674Z,5943
2018-06-23T05:12:07.840Z,5950
2018-06-23T05:12:37.870Z,5980
2018-06-23T05:13:08.028Z,6420
2018-06-23T05:13:38.058Z,6787
2018-06-23T05:14:08.221Z,5923
2018-06-23T05:14:38.290Z,5367
2018-06-23T05:15:08.498Z,5480
2018-06-23T05:15:38.585Z,5833
2018-06-23T05:16:08.639Z,5650
2018-06-23T05:16:38.625Z,5480
2018-06-23T05:17:08.794Z,5113
2018-06-23T05:17:38.861Z,5083
2018-06-23T05:18:08.992Z,4637
2018-06-23T05:18:38.990Z,4470
2018-06-23T05:19:09.159Z,4447
2018-06-23T05:19:39.171Z,4313
2018-06-23T05:20:09.632Z,3980
2018-06-23T05:20:39.416Z,4113
2018-06-23T05:21:09.521Z,4250
2018-06-23T05:21:39.592Z,4757
2018-06-23T05:22:09.750Z,4870
2018-06-23T05:22:39.729Z,5593
2018-06-23T05:23:09.944Z,5630
2018-06-23T05:23:39.973Z,4907
2018-06-23T05:24:10.130Z,4457
2018-06-23T05:24:40.146Z,4067
2018-06-23T05:25:10.613Z,4170
2018-06-23T05:25:40.374Z,4467
2018-06-23T05:26:10.563Z,4480
2018-06-23T05:26:40.479Z,4633
2018-06-23T05:27:10.698Z,4277
2018-06-23T05:27:40.708Z,3827
2018-06-23T05:28:10.835Z,3843
2018-06-23T05:28:40.843Z,4470
2018-06-23T05:29:11.055Z,4233
2018-06-23T05:29:41.053Z,4480
2018-06-23T05:30:11.238Z,4600
2018-06-23T05:30:41.204Z,4923
2018-06-23T05:31:11.406Z,4657
2018-06-23T05:31:41.498Z,4857
2018-06-23T05:32:11.671Z,4720
2018-06-23T05:32:41.642Z,4693
2018-06-23T05:33:11.805Z,5007
2018-06-23T05:33:41.805Z,5707
2018-06-23T05:34:11.964Z,5760
2018-06-23T05:34:42.000Z,6703
2018-06-23T05:35:12.155Z,6513
2018-06-23T05:35:42.202Z,5810
2018-06-23T05:36:12.356Z,6400
2018-06-23T05:36:42.376Z,5803
2018-06-23T05:37:12.524Z,5283
2018-06-23T05:37:42.650Z,4987
2018-06-23T05:38:12.748Z,4940
2018-06-23T05:38:42.761Z,4953
2018-06-23T05:39:12.957Z,5290
2018-06-23T05:39:42.967Z,5410
2018-06-23T05:40:13.220Z,5467
2018-06-23T05:40:43.185Z,4920
2018-06-23T05:41:13.404Z,4813
2018-06-23T05:41:43.322Z,4527
2018-06-23T05:42:13.569Z,4370
2018-06-23T05:42:43.540Z,4303
2018-06-23T05:43:13.669Z,4270
2018-06-23T05:43:43.715Z,4317
2018-06-23T05:44:13.836Z,4517
2018-06-23T05:44:43.888Z,4587
2018-06-23T05:45:14.227Z,4410
2018-06-23T05:45:44.093Z,4107
2018-06-23T05:46:14.296Z,4090
2018-06-23T05:46:44.251Z,4293
2018-06-23T05:47:14.448Z,4097
2018-06-23T05:47:44.485Z,4057
2018-06-23T05:48:14.675Z,4303
2018-06-23T05:48:44.628Z,4170
2018-06-23T05:49:14.834Z,4250
2018-06-23T05:49:44.828Z,4247
2018-06-23T05:50:15.038Z,4090
2018-06-23T05:50:44.978Z,3587
2018-06-23T05:51:15.189Z,4110
2018-06-23T05:51:45.305Z,4193
2018-06-23T05:52:15.344Z,4043
2018-06-23T05:52:45.436Z,3670
2018-06-23T05:53:15.549Z,3403
2018-06-23T05:53:45.602Z,3507
2018-06-23T05:54:15.774Z,3200
2018-06-23T05:54:45.751Z,3143
2018-06-23T05:55:16.032Z,3333
2018-06-23T05:55:45.915Z,2850
2018-06-23T05:56:16.131Z,2660
2018-06-23T05:56:46.178Z,3010
2018-06-23T05:57:16.455Z,3273
2018-06-23T05:57:46.391Z,3117
2018-06-23T05:58:16.588Z,2970
2018-06-23T05:58:46.543Z,2830
2018-06-23T05:59:16.641Z,3013
2018-06-23T05:59:46.682Z,3317
2018-06-23T06:00:16.839Z,3717
2018-06-23T06:00:46.899Z,4143
2018-06-23T06:01:17.016Z,4127
2018-06-23T06:01:47.035Z,3747
2018-06-23T06:02:17.216Z,3980
2018-06-23T06:02:47.314Z,3957
2018-06-23T06:03:17.439Z,4430
2018-06-23T06:03:47.469Z,4123
2018-06-23T06:04:17.707Z,4343
2018-06-23T06:04:47.642Z,3963
2018-06-23T06:05:18.063Z,3923
2018-06-23T06:05:47.809Z,4213
2018-06-23T06:06:17.965Z,3793
2018-06-23T06:06:48.083Z,3610
2018-06-23T06:07:18.163Z,3770
2018-06-23T06:07:48.292Z,3757
2018-06-23T06:08:18.365Z,3900
2018-06-23T06:08:48.450Z,4583
2018-06-23T06:09:18.542Z,4607
2018-06-23T06:09:48.583Z,4027
2018-06-23T06:10:18.768Z,4650
2018-06-23T06:10:48.867Z,4117
2018-06-23T06:11:18.950Z,4260
2018-06-23T06:11:49.096Z,4370
2018-06-23T06:12:19.189Z,4233
2018-06-23T06:12:49.203Z,4487
2018-06-23T06:13:19.341Z,5150
2018-06-23T06:13:49.354Z,4937
2018-06-23T06:14:19.400Z,5470
2018-06-23T06:14:49.546Z,4720
2018-06-23T06:15:19.799Z,4767
2018-06-23T06:15:49.658Z,5173
2018-06-23T06:16:19.837Z,5277
2018-06-23T06:16:49.844Z,5520
2018-06-23T06:17:20.517Z,5423
2018-06-23T06:17:50.399Z,5200
2018-06-23T06:18:20.260Z,4903
2018-06-23T06:18:50.218Z,4480
2018-06-23T06:19:20.490Z,5763
2018-06-23T06:19:50.452Z,5377
2018-06-23T06:20:20.567Z,5270
2018-06-23T06:20:50.629Z,5777
2018-06-23T06:21:20.747Z,6327
2018-06-23T06:21:50.771Z,5907
2018-06-23T06:22:20.931Z,5800
2018-06-23T06:22:50.978Z,6073
2018-06-23T06:23:21.118Z,5943
2018-06-23T06:23:51.300Z,5937
2018-06-23T06:24:21.375Z,6450
2018-06-23T06:24:51.355Z,7263
2018-06-23T06:25:21.545Z,7157
2018-06-23T06:25:51.879Z,6063
2018-06-23T06:26:21.754Z,5990
2018-06-23T06:26:51.720Z,6307
2018-06-23T06:27:21.944Z,6273
2018-06-23T06:27:51.980Z,6037
2018-06-23T06:28:22.130Z,6033
2018-06-23T06:28:52.163Z,6550
2018-06-23T06:29:22.401Z,6067
2018-06-23T06:29:52.348Z,5713
2018-06-23T06:30:22.524Z,5707
2018-06-23T06:30:52.554Z,5740
2018-06-23T06:31:22.664Z,5973
2018-06-23T06:31:52.670Z,6687
2018-06-23T06:32:22.875Z,7087
2018-06-23T06:32:52.849Z,6207
2018-06-23T06:33:23.005Z,7150
2018-06-23T06:33:53.048Z,6737
2018-06-23T06:34:23.295Z,7357
2018-06-23T06:34:53.302Z,6667
2018-06-23T06:35:23.421Z,5507
2018-06-23T06:35:53.428Z,5560
2018-06-23T06:36:23.603Z,6137
2018-06-23T06:36:53.624Z,6463
2018-06-23T06:37:23.803Z,7577
2018-06-23T06:37:53.812Z,8817
2018-06-23T06:38:23.920Z,8477
2018-06-23T06:38:53.946Z,7033
2018-06-23T06:39:24.092Z,6987
2018-06-23T06:39:54.136Z,7887
2018-06-23T06:40:24.337Z,6797
2018-06-23T06:40:54.310Z,6923
2018-06-23T06:41:24.557Z,7233
2018-06-23T06:41:54.567Z,6087
2018-06-23T06:42:24.733Z,5433
2018-06-23T06:42:54.929Z,5733
2018-06-23T06:43:24.885Z,6387
2018-06-23T06:43:54.919Z,6923
2018-06-23T06:44:25.071Z,6977
2018-06-23T06:44:55.110Z,6877
2018-06-23T06:45:25.277Z,6720
2018-06-23T06:45:55.300Z,6483
2018-06-23T06:46:25.474Z,6027
2018-06-23T06:46:55.533Z,5840
2018-06-23T06:47:25.629Z,6543
2018-06-23T06:47:55.687Z,7370
2018-06-23T06:48:25.898Z,7183
2018-06-23T06:48:55.855Z,7097
2018-06-23T06:49:26.019Z,8537
2018-06-23T06:49:56.093Z,8970
2018-06-23T06:50:26.209Z,8517
2018-06-23T06:50:56.324Z,10667
2018-06-23T06:51:26.446Z,11413
2018-06-23T06:51:56.518Z,9473
2018-06-23T06:52:26.669Z,10180
2018-06-23T06:52:56.739Z,11207
2018-06-23T06:53:26.785Z,11913
2018-06-23T06:53:56.819Z,11430
2018-06-23T06:54:26.961Z,8747
2018-06-23T06:54:56.981Z,9730
2018-06-23T06:55:27.200Z,11233
2018-06-23T06:55:57.226Z,10060
2018-06-23T06:56:27.407Z,8960
2018-06-23T06:56:57.403Z,9750
2018-06-23T06:57:27.595Z,8260
2018-06-23T06:57:57.575Z,8480
2018-06-23T06:58:27.761Z,7307
2018-06-23T06:58:57.745Z,6350
2018-06-23T06:59:27.940Z,6717
2018-06-23T06:59:57.975Z,7857
2018-06-23T07:00:28.111Z,7713
2018-06-23T07:00:58.254Z,7350
2018-06-23T07:01:28.312Z,7080
2018-06-23T07:01:58.302Z,6657
2018-06-23T07:02:28.454Z,6293
2018-06-23T07:02:58.517Z,6350
2018-06-23T07:03:28.645Z,6950
2018-06-23T07:03:58.630Z,7220
2018-06-23T07:04:28.808Z,7597
2018-06-23T07:04:59.057Z,7587
2018-06-23T07:05:28.954Z,8370
2018-06-23T07:05:59.039Z,8940
2018-06-23T07:06:29.160Z,8690
2018-06-23T07:06:59.201Z,10130
2018-06-23T07:07:29.321Z,11070
2018-06-23T07:07:59.434Z,10680
2018-06-23T07:08:29.541Z,9737
2018-06-23T07:08:59.563Z,10473
2018-06-23T07:09:29.752Z,11413
2018-06-23T07:09:59.737Z,11780
2018-06-23T07:10:29.886Z,11640
2018-06-23T07:10:59.969Z,11167
2018-06-23T07:11:30.046Z,9910
2018-06-23T07:12:00.090Z,9973
2018-06-23T07:12:30.252Z,10127
2018-06-23T07:13:01.750Z,11990
2018-06-23T07:13:30.523Z,10640
2018-06-23T07:14:00.890Z,10587
2018-06-23T07:14:30.946Z,10047
2018-06-23T07:15:01.190Z,10733
2018-06-23T07:15:30.885Z,14137
2018-06-23T07:16:00.847Z,16537
2018-06-23T07:16:31.126Z,15220
2018-06-23T07:17:01.479Z,15153
2018-06-23T07:17:31.505Z,18460
2018-06-23T07:18:01.279Z,17290
2018-06-23T07:18:31.418Z,16677
2018-06-23T07:19:01.659Z,16617
2018-06-23T07:19:31.786Z,16287
2018-06-23T07:20:01.654Z,17037
2018-06-23T07:20:31.820Z,16607
2018-06-23T07:21:01.854Z,16187
2018-06-23T07:21:32.054Z,15013
2018-06-23T07:22:02.042Z,14927
2018-06-23T07:22:32.425Z,15460
2018-06-23T07:23:02.196Z,15067
2018-06-23T07:23:32.513Z,15343
2018-06-23T07:24:02.486Z,15573
2018-06-23T07:24:32.625Z,15483
2018-06-23T07:25:02.644Z,15767
2018-06-23T07:25:32.777Z,14363
2018-06-23T07:26:02.881Z,13033
2018-06-23T07:26:32.961Z,12273
2018-06-23T07:27:02.984Z,14920
2018-06-23T07:27:33.150Z,15747
2018-06-23T07:28:03.228Z,14620
2018-06-23T07:28:33.727Z,15427
2018-06-23T07:29:03.488Z,14510
2018-06-23T07:29:33.782Z,13403
2018-06-23T07:30:03.710Z,13713
2018-06-23T07:30:33.797Z,14500
2018-06-23T07:31:04.109Z,13260
2018-06-23T07:31:34.278Z,13290
2018-06-23T07:32:04.202Z,13873
2018-06-23T07:32:34.348Z,13267
2018-06-23T07:33:04.382Z,11680
2018-06-23T07:33:34.529Z,11020
2018-06-23T07:34:04.574Z,11473
2018-06-23T07:34:34.862Z,12960
2018-06-23T07:35:04.807Z,14947
2018-06-23T07:35:34.836Z,17190
2018-06-23T07:36:09.320Z,14257
2018-06-23T07:36:35.029Z,12770
2018-06-23T07:37:05.055Z,14023
2018-06-23T07:37:35.214Z,12687
2018-06-23T07:38:05.506Z,12810
2018-06-23T07:38:35.406Z,12333
2018-06-23T07:39:05.464Z,11923
2018-06-23T07:39:35.697Z,11580
2018-06-23T07:40:05.610Z,11623
2018-06-23T07:40:35.828Z,11683
2018-06-23T07:41:05.824Z,12240
2018-06-23T07:41:35.989Z,12433
2018-06-23T07:42:06.024Z,12997
2018-06-23T07:42:36.167Z,12737
2018-06-23T07:43:06.243Z,13867
2018-06-23T07:43:36.389Z,15863
2018-06-23T07:44:06.420Z,16797
2018-06-23T07:44:36.525Z,16617
2018-06-23T07:45:06.564Z,16123
2018-06-23T07:45:36.778Z,15963
2018-06-23T07:46:06.826Z,17253
2018-06-23T07:46:37.021Z,18313
2018-06-23T07:47:07.004Z,14787
2018-06-23T07:47:37.140Z,12840
2018-06-23T07:48:07.157Z,15427
2018-06-23T07:48:37.395Z,18457
2018-06-23T07:49:07.651Z,16103
2018-06-23T07:49:37.576Z,17163
2018-06-23T07:50:07.703Z,17613
2018-06-23T07:50:37.727Z,14480
2018-06-23T07:51:07.901Z,17260
2018-06-23T07:51:38.782Z,17007
2018-06-23T07:52:08.280Z,17203
2018-06-23T07:52:38.092Z,19630
2018-06-23T07:53:08.285Z,23743
2018-06-23T07:53:38.365Z,21967
2018-06-23T07:54:08.350Z,18480
2018-06-23T07:54:38.521Z,21553
2018-06-23T07:55:08.582Z,26610
2018-06-23T07:55:38.693Z,26310
2018-06-23T07:56:08.741Z,21830
2018-06-23T07:56:38.936Z,22440
2018-06-23T07:57:08.963Z,21703
2018-06-23T07:57:39.196Z,16353
2018-06-23T07:58:09.069Z,15250
2018-06-23T07:58:39.262Z,18097
2018-06-23T07:59:09.372Z,19050
2018-06-23T07:59:39.469Z,21243
2018-06-23T08:00:09.860Z,22057
2018-06-23T08:00:39.711Z,20127
2018-06-23T08:01:09.710Z,19757
2018-06-23T08:01:39.970Z,17933
2018-06-23T08:02:09.992Z,20967
2018-06-23T08:02:40.133Z,19947
2018-06-23T08:03:10.166Z,20827
2018-06-23T08:03:40.369Z,24630
2018-06-23T08:04:10.386Z,26743
2018-06-23T08:04:40.569Z,23130
2018-06-23T08:05:10.546Z,20177
2018-06-23T08:05:40.672Z,23127
2018-06-23T08:06:10.810Z,24613
2018-06-23T08:06:40.856Z,21867
2018-06-23T08:07:10.873Z,18693
2018-06-23T08:07:41.028Z,19873
2018-06-23T08:08:11.133Z,19410
2018-06-23T08:08:41.234Z,18303
2018-06-23T08:09:11.354Z,16593
2018-06-23T08:09:41.448Z,17050
2018-06-23T08:10:11.482Z,17357
2018-06-23T08:10:41.606Z,16400
2018-06-23T08:11:11.686Z,14873
2018-06-23T08:11:41.842Z,12743
2018-06-23T08:12:12.042Z,12210
2018-06-23T08:12:41.948Z,11610
2018-06-23T08:13:12.297Z,12133
2018-06-23T08:13:42.277Z,11700
2018-06-23T08:14:12.318Z,14080
2018-06-23T08:14:42.452Z,18890
2018-06-23T08:15:12.507Z,16480
2018-06-23T08:15:42.638Z,15823
2018-06-23T08:16:12.643Z,16083
2018-06-23T08:16:42.762Z,15587
2018-06-23T08:17:12.853Z,18983
2018-06-23T08:17:42.993Z,19770
2018-06-23T08:18:13.099Z,16150
2018-06-23T08:18:43.176Z,19870
2018-06-23T08:19:13.305Z,23470
2018-06-23T08:19:43.377Z,19540
2018-06-23T08:20:13.414Z,18373
2018-06-23T08:20:43.558Z,21503
2018-06-23T08:21:13.566Z,18593
2018-06-23T08:21:43.742Z,18507
2018-06-23T08:22:13.817Z,17767
2018-06-23T08:22:43.976Z,18623
2018-06-23T08:23:14.051Z,20417
2018-06-23T08:23:44.118Z,19423
2018-06-23T08:24:14.124Z,21637
2018-06-23T08:24:44.279Z,22200
2018-06-23T08:25:14.340Z,16263
2018-06-23T08:25:44.459Z,15417
2018-06-23T08:26:14.548Z,15457
2018-06-23T08:26:44.792Z,15113
2018-06-23T08:27:14.773Z,16920
2018-06-23T08:27:44.821Z,21130
2018-06-23T08:28:14.884Z,21167
2018-06-23T08:28:45.016Z,22467
2018-06-23T08:29:15.108Z,26253
2018-06-23T08:29:45.238Z,28620
2018-06-23T08:30:16.323Z,30907
2018-06-23T08:30:45.850Z,30350
2018-06-23T08:31:15.931Z,30327
2018-06-23T08:31:46.106Z,28617
2018-06-23T08:32:16.070Z,28160
2018-06-23T08:32:46.271Z,27983
2018-06-23T08:33:16.255Z,31070
2018-06-23T08:33:46.531Z,36770
2018-06-23T08:34:16.421Z,42953
2018-06-23T08:34:46.660Z,42147
2018-06-23T08:35:16.650Z,33297
2018-06-23T08:35:46.790Z,31320
2018-06-23T08:36:16.833Z,28897
2018-06-23T08:36:47.267Z,30467
2018-06-23T08:37:17.150Z,32727
2018-06-23T08:37:47.273Z,32213
2018-06-23T08:38:17.210Z,33493
2018-06-23T08:38:47.385Z,36687
2018-06-23T08:39:17.413Z,34560
2018-06-23T08:39:47.672Z,37157
2018-06-23T08:40:17.611Z,37257
2018-06-23T08:40:47.737Z,33633
2018-06-23T08:41:17.807Z,37553
2018-06-23T08:41:47.944Z,34623
2018-06-23T08:42:18.004Z,31507
2018-06-23T08:42:48.227Z,36087
2018-06-23T08:43:18.203Z,32157
2018-06-23T08:43:48.408Z,30900
2018-06-23T08:44:18.659Z,43103
2018-06-23T08:44:48.842Z,46560
2018-06-23T08:45:19.171Z,53733
2018-06-23T08:45:48.866Z,54540
2018-06-23T08:46:18.854Z,46007
2018-06-23T08:46:49.027Z,80330
2018-06-23T08:47:19.038Z,89817
2018-06-23T08:47:49.217Z,79690
2018-06-23T08:48:19.467Z,90797
2018-06-23T08:48:49.486Z,62440
2018-06-23T08:49:19.567Z,39427
2018-06-23T08:49:50.102Z,38333
2018-06-23T08:50:20.143Z,41567
2018-06-23T08:50:50.335Z,44617
2018-06-23T08:51:20.331Z,39367
2018-06-23T08:51:50.577Z,36870
2018-06-23T08:52:20.505Z,43503
2018-06-23T08:52:50.699Z,56207
2018-06-23T08:53:20.706Z,55600
2018-06-23T08:53:50.849Z,51643
2018-06-23T08:54:20.889Z,55063
2018-06-23T08:54:51.058Z,67357
2018-06-23T08:55:21.262Z,91483
2018-06-23T08:55:51.282Z,85687
2018-06-23T08:56:21.282Z,75457
2018-06-23T08:56:51.478Z,73533
2018-06-23T08:57:21.465Z,70830
2018-06-23T08:57:51.632Z,61137
2018-06-23T08:58:21.643Z,54387
2018-06-23T08:58:51.831Z,61283
2018-06-23T08:59:21.838Z,84967
2018-06-23T08:59:52.033Z,117213
2018-06-23T09:00:22.020Z,143760
2018-06-23T09:00:52.169Z,134047
2018-06-23T09:01:22.234Z,104107
2018-06-23T09:01:52.465Z,104653
2018-06-23T09:02:22.404Z,169287
2018-06-23T09:02:52.809Z,121207
2018-06-23T09:03:22.608Z,126017
2018-06-23T09:03:53.025Z,112087
2018-06-23T09:04:22.884Z,104327
2018-06-23T09:04:53.016Z,99967
2018-06-23T09:05:23.162Z,92653
2018-06-23T09:05:53.129Z,82183
2018-06-23T09:06:23.201Z,79167